CCA3428 ZGSZ-ZHHH
Flight info
| Callsign | CCA3428 |
|---|---|
| Flight time | 1h 40m |
| Altitude | 37100 |
| Route | MIPAG1 MIPAG W21 TEPID W22 YIN A461 BUBDA/K0856S1160 W56 REBIS/K0857S1190 W56 UPMAT UPMAT1M |
| Aircraft | A339/H-SADE1E2E3GHIJ3J5M1P2RWXY/LB2D1 |
Departure
| Time | 2026-05-07 13:19 |
|---|---|
| Airport | Shenzhen Bao'an International Airport (ZGSZ) |
Arrival
| Time | 2026-05-07 15:00 |
|---|---|
| Airport | Wuhan Tianhe International Airport (ZHHH) |
| Time | Latitude | Longitude | Altitude | Speed | Heading |
|---|---|---|---|---|---|
| 2026-05-07 13:00 | 22.63155 | 113.80177 | 16 ft | 0 kts | 98° |
| 2026-05-07 13:02 | 22.63156 | 113.80172 | 16 ft | 2 kts | 98° |
| 2026-05-07 13:03 | 22.63157 | 113.80154 | 18 ft | 2 kts | 108° |
| 2026-05-07 13:03 | 22.63151 | 113.80136 | 17 ft | 2 kts | 173° |
| 2026-05-07 13:03 | 22.63161 | 113.80133 | 20 ft | 2 kts | 353° |
| 2026-05-07 13:03 | 22.63167 | 113.80133 | 21 ft | 2 kts | 355° |
| 2026-05-07 13:04 | 22.63157 | 113.80136 | 19 ft | 2 kts | 171° |
| 2026-05-07 13:04 | 22.63166 | 113.80132 | 21 ft | 0 kts | 352° |
| 2026-05-07 13:08 | 22.63167 | 113.80131 | 16 ft | 0 kts | 345° |
| 2026-05-07 13:08 | 22.63169 | 113.80128 | 17 ft | 0 kts | 327° |
| 2026-05-07 13:09 | 22.63175 | 113.80120 | 16 ft | 3 kts | 310° |
| 2026-05-07 13:09 | 22.63195 | 113.80081 | 15 ft | 9 kts | 291° |
| 2026-05-07 13:09 | 22.63204 | 113.79996 | 13 ft | 15 kts | 275° |
| 2026-05-07 13:09 | 22.63267 | 113.79892 | 10 ft | 19 kts | 331° |
| 2026-05-07 13:10 | 22.63397 | 113.79835 | 12 ft | 21 kts | 332° |
| 2026-05-07 13:10 | 22.63534 | 113.79754 | 11 ft | 24 kts | 333° |
| 2026-05-07 13:10 | 22.63680 | 113.79673 | 13 ft | 24 kts | 333° |
| 2026-05-07 13:10 | 22.63828 | 113.79590 | 13 ft | 25 kts | 334° |
| 2026-05-07 13:11 | 22.63981 | 113.79511 | 16 ft | 25 kts | 334° |
| 2026-05-07 13:11 | 22.64142 | 113.79438 | 15 ft | 26 kts | 340° |
| 2026-05-07 13:11 | 22.64297 | 113.79342 | 15 ft | 26 kts | 332° |
| 2026-05-07 13:11 | 22.64465 | 113.79247 | 11 ft | 29 kts | 332° |
| 2026-05-07 13:12 | 22.64645 | 113.79149 | 11 ft | 29 kts | 333° |
| 2026-05-07 13:12 | 22.64827 | 113.79050 | 10 ft | 28 kts | 331° |
| 2026-05-07 13:12 | 22.64995 | 113.78952 | 12 ft | 28 kts | 332° |
| 2026-05-07 13:12 | 22.65169 | 113.78853 | 13 ft | 28 kts | 332° |
| 2026-05-07 13:13 | 22.65346 | 113.78758 | 11 ft | 30 kts | 333° |
| 2026-05-07 13:13 | 22.65423 | 113.78716 | 10 ft | 0 kts | 333° |
| 2026-05-07 13:17 | 22.65426 | 113.78714 | 10 ft | 2 kts | 334° |
| 2026-05-07 13:17 | 22.65453 | 113.78699 | 10 ft | 6 kts | 332° |
| 2026-05-07 13:17 | 22.65488 | 113.78655 | 10 ft | 9 kts | 289° |
| 2026-05-07 13:18 | 22.65473 | 113.78582 | 9 ft | 12 kts | 249° |
| 2026-05-07 13:18 | 22.65411 | 113.78520 | 9 ft | 13 kts | 189° |
| 2026-05-07 13:18 | 22.65325 | 113.78555 | 11 ft | 16 kts | 153° |
| 2026-05-07 13:18 | 22.65048 | 113.78710 | 15 ft | 87 kts | 152° |
| 2026-05-07 13:19 | 22.64227 | 113.79158 | 16 ft | 175 kts | 153° |
| 2026-05-07 13:19 | 22.63021 | 113.79851 | 536 ft | 210 kts | 152° |
| 2026-05-07 13:19 | 22.61771 | 113.80818 | 1090 ft | 243 kts | 132° |
| 2026-05-07 13:19 | 22.60753 | 113.82201 | 2475 ft | 229 kts | 137° |
| 2026-05-07 13:20 | 22.59401 | 113.83111 | 3392 ft | 231 kts | 154° |
| 2026-05-07 13:20 | 22.57928 | 113.83864 | 4130 ft | 237 kts | 156° |
| 2026-05-07 13:20 | 22.56390 | 113.84641 | 4554 ft | 248 kts | 155° |
| 2026-05-07 13:20 | 22.54870 | 113.85537 | 4833 ft | 252 kts | 142° |
| 2026-05-07 13:21 | 22.53842 | 113.87090 | 5201 ft | 265 kts | 110° |
| 2026-05-07 13:21 | 22.53649 | 113.89110 | 5759 ft | 279 kts | 82° |
| 2026-05-07 13:21 | 22.54354 | 113.91037 | 6508 ft | 284 kts | 54° |
| 2026-05-07 13:21 | 22.55808 | 113.92462 | 7290 ft | 285 kts | 27° |
| 2026-05-07 13:22 | 22.57704 | 113.93051 | 8065 ft | 286 kts | 1° |
| 2026-05-07 13:22 | 22.59639 | 113.92669 | 8878 ft | 285 kts | 334° |
| 2026-05-07 13:22 | 22.61241 | 113.91435 | 9675 ft | 285 kts | 315° |
| 2026-05-07 13:22 | 22.62666 | 113.89927 | 10338 ft | 291 kts | 313° |
| 2026-05-07 13:23 | 22.64151 | 113.88332 | 10669 ft | 311 kts | 314° |
| 2026-05-07 13:23 | 22.65809 | 113.86727 | 11010 ft | 329 kts | 319° |
| 2026-05-07 13:23 | 22.67701 | 113.85232 | 11393 ft | 345 kts | 324° |
| 2026-05-07 13:23 | 22.69794 | 113.83856 | 11804 ft | 359 kts | 328° |
| 2026-05-07 13:24 | 22.72012 | 113.82597 | 12225 ft | 371 kts | 332° |
| 2026-05-07 13:24 | 22.74385 | 113.81395 | 12665 ft | 382 kts | 334° |
| 2026-05-07 13:24 | 22.76851 | 113.80256 | 13229 ft | 388 kts | 335° |
| 2026-05-07 13:24 | 22.79371 | 113.79168 | 13852 ft | 392 kts | 336° |
| 2026-05-07 13:25 | 22.81931 | 113.78116 | 14438 ft | 395 kts | 337° |
| 2026-05-07 13:25 | 22.84521 | 113.77088 | 15032 ft | 398 kts | 338° |
| 2026-05-07 13:25 | 22.87140 | 113.76075 | 15620 ft | 401 kts | 338° |
| 2026-05-07 13:25 | 22.89784 | 113.75068 | 16222 ft | 405 kts | 338° |
| 2026-05-07 13:26 | 22.92483 | 113.74294 | 16771 ft | 411 kts | 349° |
| 2026-05-07 13:26 | 22.95358 | 113.74082 | 17367 ft | 417 kts | 355° |
| 2026-05-07 13:26 | 22.98272 | 113.74037 | 17924 ft | 421 kts | 357° |
| 2026-05-07 13:26 | 23.01212 | 113.74047 | 18455 ft | 424 kts | 358° |
| 2026-05-07 13:27 | 23.04175 | 113.74085 | 18946 ft | 427 kts | 358° |
| 2026-05-07 13:27 | 23.07156 | 113.74134 | 19433 ft | 430 kts | 358° |
| 2026-05-07 13:27 | 23.10156 | 113.74183 | 19909 ft | 433 kts | 358° |
| 2026-05-07 13:27 | 23.13175 | 113.74227 | 20402 ft | 435 kts | 358° |
| 2026-05-07 13:28 | 23.16210 | 113.74262 | 20859 ft | 438 kts | 358° |
| 2026-05-07 13:28 | 23.19221 | 113.74287 | 21326 ft | 440 kts | 358° |
| 2026-05-07 13:28 | 23.22292 | 113.74304 | 21776 ft | 442 kts | 357° |
| 2026-05-07 13:28 | 23.25380 | 113.74310 | 22227 ft | 445 kts | 357° |
| 2026-05-07 13:29 | 23.28442 | 113.73948 | 22637 ft | 442 kts | 343° |
| 2026-05-07 13:29 | 23.31242 | 113.72621 | 23103 ft | 440 kts | 326° |
| 2026-05-07 13:29 | 23.33524 | 113.70436 | 23557 ft | 438 kts | 309° |
| 2026-05-07 13:29 | 23.35324 | 113.67761 | 23907 ft | 439 kts | 303° |
| 2026-05-07 13:30 | 23.37013 | 113.64981 | 24277 ft | 441 kts | 302° |
| 2026-05-07 13:30 | 23.38681 | 113.62168 | 24645 ft | 443 kts | 302° |
| 2026-05-07 13:30 | 23.40331 | 113.59378 | 25008 ft | 445 kts | 302° |
| 2026-05-07 13:30 | 23.42027 | 113.56541 | 25350 ft | 448 kts | 302° |
| 2026-05-07 13:31 | 23.43751 | 113.53706 | 25719 ft | 450 kts | 303° |
| 2026-05-07 13:31 | 23.45506 | 113.50874 | 26081 ft | 452 kts | 303° |
| 2026-05-07 13:31 | 23.47291 | 113.48046 | 26430 ft | 454 kts | 304° |
| 2026-05-07 13:31 | 23.49102 | 113.45219 | 26765 ft | 456 kts | 304° |
| 2026-05-07 13:32 | 23.50937 | 113.42388 | 27114 ft | 458 kts | 304° |
| 2026-05-07 13:32 | 23.53049 | 113.39781 | 27424 ft | 463 kts | 317° |
| 2026-05-07 13:32 | 23.55803 | 113.37935 | 27772 ft | 470 kts | 334° |
| 2026-05-07 13:32 | 23.58940 | 113.37037 | 28096 ft | 478 kts | 350° |
| 2026-05-07 13:33 | 23.62291 | 113.37043 | 28408 ft | 485 kts | 1° |
| 2026-05-07 13:33 | 23.65664 | 113.37389 | 28683 ft | 488 kts | 2° |
| 2026-05-07 13:33 | 23.69048 | 113.37799 | 28941 ft | 490 kts | 3° |
| 2026-05-07 13:33 | 23.72441 | 113.38219 | 29310 ft | 490 kts | 3° |
| 2026-05-07 13:34 | 23.75822 | 113.38621 | 29766 ft | 488 kts | 2° |
| 2026-05-07 13:34 | 23.82565 | 113.39327 | 30510 ft | 486 kts | 1° |
| 2026-05-07 13:34 | 23.85929 | 113.39628 | 30892 ft | 485 kts | 1° |
| 2026-05-07 13:35 | 23.89247 | 113.39895 | 31248 ft | 484 kts | 0° |
| 2026-05-07 13:35 | 23.92605 | 113.40140 | 31626 ft | 483 kts | 360° |
| 2026-05-07 13:35 | 23.95958 | 113.40362 | 32036 ft | 482 kts | 359° |
| 2026-05-07 13:35 | 23.99305 | 113.40568 | 32455 ft | 481 kts | 359° |
| 2026-05-07 13:36 | 24.02644 | 113.40758 | 32876 ft | 480 kts | 358° |
| 2026-05-07 13:36 | 24.05978 | 113.40935 | 33313 ft | 479 kts | 358° |
| 2026-05-07 13:36 | 24.09294 | 113.41100 | 33779 ft | 478 kts | 358° |
| 2026-05-07 13:36 | 24.12609 | 113.41256 | 34190 ft | 477 kts | 357° |
| 2026-05-07 13:37 | 24.15919 | 113.41400 | 34559 ft | 477 kts | 357° |
| 2026-05-07 13:37 | 24.19194 | 113.41532 | 34939 ft | 476 kts | 357° |
| 2026-05-07 13:37 | 24.22500 | 113.41654 | 35323 ft | 476 kts | 356° |
| 2026-05-07 13:37 | 24.25803 | 113.41768 | 35711 ft | 475 kts | 356° |
| 2026-05-07 13:38 | 24.29115 | 113.41877 | 36114 ft | 475 kts | 356° |
| 2026-05-07 13:38 | 24.32413 | 113.41978 | 36525 ft | 475 kts | 356° |
| 2026-05-07 13:38 | 24.35709 | 113.42077 | 36868 ft | 470 kts | 356° |
| 2026-05-07 13:38 | 24.38971 | 113.42169 | 37009 ft | 470 kts | 355° |
| 2026-05-07 13:39 | 24.42210 | 113.42261 | 37073 ft | 475 kts | 355° |
| 2026-05-07 13:39 | 24.48845 | 113.42455 | 37119 ft | 476 kts | 355° |
| 2026-05-07 13:40 | 24.55455 | 113.42649 | 37129 ft | 473 kts | 355° |
| 2026-05-07 13:40 | 24.62025 | 113.42843 | 37125 ft | 473 kts | 355° |
| 2026-05-07 13:41 | 24.68624 | 113.43031 | 37132 ft | 474 kts | 355° |
| 2026-05-07 13:41 | 24.75159 | 113.43217 | 37133 ft | 472 kts | 355° |
| 2026-05-07 13:42 | 24.81713 | 113.43404 | 37135 ft | 471 kts | 355° |
| 2026-05-07 13:42 | 24.88272 | 113.43587 | 37127 ft | 473 kts | 355° |
| 2026-05-07 13:43 | 24.94847 | 113.43771 | 37140 ft | 472 kts | 355° |
| 2026-05-07 13:43 | 25.01362 | 113.43955 | 37128 ft | 471 kts | 355° |
| 2026-05-07 13:44 | 25.07923 | 113.44139 | 37152 ft | 472 kts | 355° |
| 2026-05-07 13:44 | 25.14483 | 113.44323 | 37155 ft | 472 kts | 355° |
| 2026-05-07 13:45 | 25.21040 | 113.44508 | 37155 ft | 471 kts | 355° |
| 2026-05-07 13:45 | 25.27595 | 113.44694 | 37145 ft | 471 kts | 355° |
| 2026-05-07 13:46 | 25.34103 | 113.44877 | 37173 ft | 472 kts | 355° |
| 2026-05-07 13:46 | 25.40676 | 113.45059 | 37186 ft | 472 kts | 355° |
| 2026-05-07 13:47 | 25.47234 | 113.45247 | 37178 ft | 470 kts | 355° |
| 2026-05-07 13:47 | 25.53785 | 113.45433 | 37188 ft | 471 kts | 355° |
| 2026-05-07 13:48 | 25.60294 | 113.45618 | 37191 ft | 472 kts | 355° |
| 2026-05-07 13:48 | 25.66847 | 113.45804 | 37195 ft | 470 kts | 355° |
| 2026-05-07 13:49 | 25.73386 | 113.45991 | 37203 ft | 470 kts | 355° |
| 2026-05-07 13:49 | 25.79929 | 113.46173 | 37202 ft | 470 kts | 355° |
| 2026-05-07 13:50 | 25.86455 | 113.46263 | 37209 ft | 468 kts | 353° |
| 2026-05-07 13:50 | 25.92925 | 113.46113 | 37215 ft | 467 kts | 352° |
| 2026-05-07 13:51 | 25.99421 | 113.45894 | 37216 ft | 466 kts | 352° |
| 2026-05-07 13:51 | 26.05894 | 113.45654 | 37216 ft | 466 kts | 352° |
| 2026-05-07 13:52 | 26.12378 | 113.45404 | 37216 ft | 466 kts | 352° |
| 2026-05-07 13:52 | 26.18869 | 113.45153 | 37219 ft | 467 kts | 352° |
| 2026-05-07 13:53 | 26.25318 | 113.44903 | 37215 ft | 466 kts | 352° |
| 2026-05-07 13:53 | 26.31788 | 113.44653 | 37214 ft | 465 kts | 352° |
| 2026-05-07 13:54 | 26.38269 | 113.44402 | 37216 ft | 466 kts | 352° |
| 2026-05-07 13:54 | 26.44760 | 113.44149 | 37217 ft | 466 kts | 352° |
| 2026-05-07 13:55 | 26.51244 | 113.43899 | 37214 ft | 466 kts | 352° |
| 2026-05-07 13:55 | 26.57667 | 113.43655 | 37216 ft | 466 kts | 352° |
| 2026-05-07 13:56 | 26.64148 | 113.43408 | 37215 ft | 466 kts | 352° |
| 2026-05-07 13:56 | 26.70625 | 113.43160 | 37216 ft | 466 kts | 352° |
| 2026-05-07 13:57 | 26.77100 | 113.42912 | 37216 ft | 465 kts | 352° |
| 2026-05-07 13:57 | 26.83537 | 113.42664 | 37213 ft | 466 kts | 352° |
| 2026-05-07 13:58 | 26.90016 | 113.42415 | 37216 ft | 465 kts | 352° |
| 2026-05-07 13:58 | 26.96470 | 113.42167 | 37218 ft | 464 kts | 352° |
| 2026-05-07 13:59 | 27.02936 | 113.41917 | 37218 ft | 465 kts | 351° |
| 2026-05-07 13:59 | 27.09366 | 113.41668 | 37214 ft | 465 kts | 351° |
| 2026-05-07 14:00 | 27.15825 | 113.41417 | 37217 ft | 465 kts | 351° |
| 2026-05-07 14:00 | 27.22289 | 113.41166 | 37219 ft | 465 kts | 351° |
| 2026-05-07 14:01 | 27.28757 | 113.40913 | 37218 ft | 465 kts | 351° |
| 2026-05-07 14:01 | 27.35251 | 113.40849 | 37220 ft | 467 kts | 353° |
| 2026-05-07 14:02 | 27.41701 | 113.40925 | 37221 ft | 467 kts | 354° |
| 2026-05-07 14:02 | 27.48205 | 113.41047 | 37221 ft | 467 kts | 354° |
| 2026-05-07 14:03 | 27.54711 | 113.41180 | 37222 ft | 468 kts | 354° |
| 2026-05-07 14:03 | 27.61176 | 113.41312 | 37231 ft | 468 kts | 354° |
| 2026-05-07 14:04 | 27.67692 | 113.41636 | 37221 ft | 471 kts | 356° |
| 2026-05-07 14:04 | 27.74238 | 113.42151 | 37221 ft | 472 kts | 357° |
| 2026-05-07 14:05 | 27.80788 | 113.42740 | 37223 ft | 472 kts | 357° |
| 2026-05-07 14:05 | 27.87306 | 113.43332 | 37224 ft | 472 kts | 357° |
| 2026-05-07 14:06 | 27.93806 | 113.43914 | 37232 ft | 471 kts | 356° |
| 2026-05-07 14:06 | 28.00351 | 113.44487 | 37232 ft | 472 kts | 356° |
| 2026-05-07 14:07 | 28.06900 | 113.45050 | 37229 ft | 472 kts | 356° |
| 2026-05-07 14:07 | 28.13434 | 113.45560 | 37226 ft | 471 kts | 356° |
| 2026-05-07 14:08 | 28.19929 | 113.46032 | 37234 ft | 471 kts | 355° |
| 2026-05-07 14:08 | 28.26477 | 113.46497 | 37235 ft | 471 kts | 355° |
| 2026-05-07 14:09 | 28.33015 | 113.46962 | 37234 ft | 470 kts | 355° |
| 2026-05-07 14:09 | 28.39534 | 113.47428 | 37234 ft | 470 kts | 355° |
| 2026-05-07 14:10 | 28.46087 | 113.47896 | 37242 ft | 471 kts | 355° |
| 2026-05-07 14:10 | 28.52622 | 113.48359 | 37242 ft | 481 kts | 355° |
| 2026-05-07 14:11 | 28.59392 | 113.48829 | 37245 ft | 490 kts | 355° |
| 2026-05-07 14:11 | 28.66196 | 113.49321 | 37255 ft | 490 kts | 355° |
| 2026-05-07 14:12 | 28.72991 | 113.49818 | 37251 ft | 490 kts | 355° |
| 2026-05-07 14:12 | 28.79744 | 113.50306 | 37252 ft | 489 kts | 355° |
| 2026-05-07 14:13 | 28.86541 | 113.50797 | 37254 ft | 489 kts | 355° |
| 2026-05-07 14:13 | 28.93336 | 113.51286 | 37254 ft | 489 kts | 355° |
| 2026-05-07 14:14 | 29.00134 | 113.51773 | 37259 ft | 490 kts | 355° |
| 2026-05-07 14:14 | 29.06895 | 113.52261 | 37261 ft | 490 kts | 355° |
| 2026-05-07 14:15 | 29.13694 | 113.52752 | 37264 ft | 490 kts | 355° |
| 2026-05-07 14:15 | 29.20496 | 113.53242 | 37268 ft | 490 kts | 355° |
| 2026-05-07 14:16 | 29.27308 | 113.53746 | 37271 ft | 492 kts | 355° |
| 2026-05-07 14:16 | 29.34127 | 113.54310 | 37269 ft | 491 kts | 355° |
| 2026-05-07 14:17 | 29.40894 | 113.54891 | 37275 ft | 491 kts | 355° |
| 2026-05-07 14:17 | 29.47708 | 113.55481 | 37276 ft | 491 kts | 355° |
| 2026-05-07 14:18 | 29.54522 | 113.56074 | 37279 ft | 491 kts | 355° |
| 2026-05-07 14:18 | 29.61337 | 113.56667 | 37284 ft | 491 kts | 355° |
| 2026-05-07 14:19 | 29.68104 | 113.57256 | 37287 ft | 491 kts | 355° |
| 2026-05-07 14:19 | 29.74916 | 113.57849 | 37288 ft | 491 kts | 355° |
| 2026-05-07 14:20 | 29.81726 | 113.58443 | 37289 ft | 491 kts | 355° |
| 2026-05-07 14:20 | 29.88535 | 113.59038 | 37286 ft | 491 kts | 355° |
| 2026-05-07 14:21 | 29.95296 | 113.60034 | 37289 ft | 500 kts | 2° |
| 2026-05-07 14:21 | 30.02114 | 113.61807 | 37287 ft | 504 kts | 5° |
| 2026-05-07 14:22 | 30.08924 | 113.63847 | 37293 ft | 505 kts | 6° |
| 2026-05-07 14:22 | 30.15718 | 113.65943 | 37293 ft | 505 kts | 6° |
| 2026-05-07 14:22 | 30.19016 | 113.67373 | 37294 ft | 523 kts | 19° |
| 2026-05-07 14:23 | 30.22133 | 113.69741 | 37046 ft | 535 kts | 28° |
| 2026-05-07 14:23 | 30.28387 | 113.73872 | 36962 ft | 504 kts | 8° |
| 2026-05-07 14:24 | 30.34744 | 113.77244 | 36911 ft | 519 kts | 31° |
| 2026-05-07 14:24 | 30.37278 | 113.80290 | 36573 ft | 534 kts | 47° |
| 2026-05-07 14:24 | 30.39117 | 113.84042 | 36449 ft | 538 kts | 64° |
| 2026-05-07 14:24 | 30.40124 | 113.88186 | 36445 ft | 533 kts | 79° |
| 2026-05-07 14:25 | 30.40248 | 113.92441 | 36456 ft | 526 kts | 96° |
| 2026-05-07 14:25 | 30.39517 | 113.96529 | 36310 ft | 514 kts | 111° |
| 2026-05-07 14:25 | 30.38028 | 114.00199 | 35702 ft | 508 kts | 127° |
| 2026-05-07 14:25 | 30.35809 | 114.03298 | 35227 ft | 493 kts | 144° |
| 2026-05-07 14:26 | 30.33091 | 114.05524 | 35084 ft | 467 kts | 159° |
| 2026-05-07 14:26 | 30.30216 | 114.07206 | 34555 ft | 465 kts | 162° |
| 2026-05-07 14:26 | 30.27200 | 114.08575 | 33715 ft | 464 kts | 173° |
| 2026-05-07 14:26 | 30.24048 | 114.08968 | 32824 ft | 451 kts | 189° |
| 2026-05-07 14:27 | 30.20926 | 114.08693 | 31959 ft | 449 kts | 193° |
| 2026-05-07 14:27 | 30.18868 | 114.08425 | 31403 ft | 450 kts | 194° |
| 2026-05-07 14:27 | 30.15758 | 114.07972 | 30581 ft | 451 kts | 194° |
| 2026-05-07 14:27 | 30.11640 | 114.07310 | 29403 ft | 451 kts | 195° |
| 2026-05-07 14:28 | 30.08536 | 114.06779 | 28491 ft | 451 kts | 195° |
| 2026-05-07 14:28 | 30.05439 | 114.06229 | 27612 ft | 450 kts | 195° |
| 2026-05-07 14:28 | 30.02429 | 114.05414 | 26753 ft | 439 kts | 206° |
| 2026-05-07 14:28 | 30.00650 | 114.04364 | 26199 ft | 429 kts | 218° |
| 2026-05-07 14:29 | 29.98497 | 114.02070 | 25378 ft | 418 kts | 235° |
| 2026-05-07 14:29 | 29.97146 | 113.99159 | 24586 ft | 410 kts | 253° |
| 2026-05-07 14:29 | 29.96471 | 113.95980 | 23823 ft | 407 kts | 260° |
| 2026-05-07 14:29 | 29.95960 | 113.92779 | 22945 ft | 405 kts | 261° |
| 2026-05-07 14:30 | 29.95366 | 113.88546 | 21770 ft | 403 kts | 262° |
| 2026-05-07 14:30 | 29.94958 | 113.85358 | 20912 ft | 402 kts | 262° |
| 2026-05-07 14:30 | 29.94693 | 113.83205 | 20354 ft | 401 kts | 262° |
| 2026-05-07 14:30 | 29.94425 | 113.80058 | 19551 ft | 400 kts | 269° |
| 2026-05-07 14:31 | 29.94561 | 113.76859 | 18752 ft | 400 kts | 274° |
| 2026-05-07 14:31 | 29.94809 | 113.73668 | 17906 ft | 400 kts | 275° |
| 2026-05-07 14:31 | 29.95084 | 113.70480 | 17021 ft | 400 kts | 275° |
| 2026-05-07 14:31 | 29.95373 | 113.67293 | 16165 ft | 400 kts | 275° |
| 2026-05-07 14:32 | 29.95667 | 113.64110 | 15329 ft | 399 kts | 276° |
| 2026-05-07 14:32 | 29.95961 | 113.60928 | 14507 ft | 399 kts | 276° |
| 2026-05-07 14:32 | 29.96254 | 113.57749 | 13684 ft | 399 kts | 276° |
| 2026-05-07 14:32 | 29.96536 | 113.54572 | 12794 ft | 398 kts | 276° |
| 2026-05-07 14:33 | 29.96789 | 113.51437 | 11931 ft | 398 kts | 276° |
| 2026-05-07 14:33 | 29.97016 | 113.48259 | 11085 ft | 398 kts | 276° |
| 2026-05-07 14:33 | 29.97223 | 113.45075 | 10265 ft | 398 kts | 276° |
| 2026-05-07 14:33 | 29.97404 | 113.41885 | 9396 ft | 399 kts | 276° |
| 2026-05-07 14:34 | 29.97573 | 113.38697 | 8661 ft | 396 kts | 276° |
| 2026-05-07 14:34 | 29.97729 | 113.35581 | 8339 ft | 382 kts | 276° |
| 2026-05-07 14:34 | 29.97872 | 113.32598 | 8201 ft | 363 kts | 276° |
| 2026-05-07 14:34 | 29.97998 | 113.29774 | 8146 ft | 343 kts | 276° |
| 2026-05-07 14:35 | 29.98111 | 113.27086 | 8127 ft | 331 kts | 276° |
| 2026-05-07 14:35 | 29.98217 | 113.24471 | 8115 ft | 332 kts | 276° |
| 2026-05-07 14:35 | 29.98326 | 113.21802 | 8100 ft | 335 kts | 276° |
| 2026-05-07 14:35 | 29.98434 | 113.19119 | 8115 ft | 335 kts | 276° |
| 2026-05-07 14:36 | 29.98543 | 113.16440 | 8101 ft | 334 kts | 276° |
| 2026-05-07 14:36 | 29.98651 | 113.13762 | 8110 ft | 335 kts | 276° |
| 2026-05-07 14:36 | 29.98759 | 113.11077 | 8097 ft | 335 kts | 276° |
| 2026-05-07 14:36 | 29.98867 | 113.08392 | 8100 ft | 335 kts | 276° |
| 2026-05-07 14:37 | 29.98974 | 113.05711 | 8097 ft | 335 kts | 276° |
| 2026-05-07 14:37 | 29.99184 | 113.00380 | 8101 ft | 333 kts | 276° |
| 2026-05-07 14:37 | 29.99279 | 112.97795 | 8111 ft | 312 kts | 276° |
| 2026-05-07 14:38 | 29.99360 | 112.95372 | 8100 ft | 293 kts | 276° |
| 2026-05-07 14:38 | 29.99420 | 112.93102 | 8102 ft | 274 kts | 273° |
| 2026-05-07 14:38 | 29.99024 | 112.91028 | 8103 ft | 263 kts | 244° |
| 2026-05-07 14:38 | 29.97840 | 112.89470 | 8124 ft | 260 kts | 212° |
| 2026-05-07 14:39 | 29.96154 | 112.88765 | 8122 ft | 260 kts | 181° |
| 2026-05-07 14:39 | 29.94409 | 112.89062 | 8124 ft | 252 kts | 151° |
| 2026-05-07 14:39 | 29.92979 | 112.90340 | 8124 ft | 282 kts | 123° |
| 2026-05-07 14:39 | 29.92167 | 112.92365 | 8117 ft | 275 kts | 97° |
| 2026-05-07 14:40 | 29.92267 | 112.94501 | 8106 ft | 265 kts | 69° |
| 2026-05-07 14:40 | 29.93205 | 112.96295 | 8116 ft | 262 kts | 49° |
| 2026-05-07 14:40 | 29.94397 | 112.97889 | 8097 ft | 264 kts | 48° |
| 2026-05-07 14:40 | 29.95585 | 112.99496 | 8100 ft | 263 kts | 49° |
| 2026-05-07 14:41 | 29.96745 | 113.01123 | 8096 ft | 263 kts | 50° |
| 2026-05-07 14:41 | 29.97860 | 113.02761 | 8103 ft | 263 kts | 51° |
| 2026-05-07 14:41 | 29.98953 | 113.04452 | 8099 ft | 264 kts | 52° |
| 2026-05-07 14:41 | 30.00015 | 113.06177 | 8098 ft | 264 kts | 53° |
| 2026-05-07 14:42 | 30.01052 | 113.07931 | 8097 ft | 264 kts | 54° |
| 2026-05-07 14:42 | 30.02063 | 113.09692 | 8098 ft | 264 kts | 55° |
| 2026-05-07 14:42 | 30.03061 | 113.11468 | 8095 ft | 264 kts | 56° |
| 2026-05-07 14:42 | 30.04050 | 113.13262 | 8114 ft | 264 kts | 56° |
| 2026-05-07 14:43 | 30.05026 | 113.15052 | 8094 ft | 264 kts | 56° |
| 2026-05-07 14:43 | 30.06001 | 113.16852 | 8097 ft | 264 kts | 57° |
| 2026-05-07 14:43 | 30.06956 | 113.18627 | 8092 ft | 264 kts | 57° |
| 2026-05-07 14:43 | 30.07920 | 113.20429 | 8098 ft | 264 kts | 57° |
| 2026-05-07 14:44 | 30.08887 | 113.22237 | 8114 ft | 264 kts | 57° |
| 2026-05-07 14:44 | 30.09850 | 113.24039 | 8097 ft | 264 kts | 57° |
| 2026-05-07 14:44 | 30.10813 | 113.25843 | 8093 ft | 264 kts | 57° |
| 2026-05-07 14:44 | 30.11779 | 113.27654 | 8111 ft | 264 kts | 57° |
| 2026-05-07 14:45 | 30.12741 | 113.29462 | 8098 ft | 265 kts | 57° |
| 2026-05-07 14:45 | 30.13709 | 113.31281 | 8111 ft | 265 kts | 57° |
| 2026-05-07 14:45 | 30.14674 | 113.33093 | 8096 ft | 265 kts | 57° |
| 2026-05-07 14:45 | 30.15641 | 113.34905 | 8094 ft | 265 kts | 57° |
| 2026-05-07 14:46 | 30.16592 | 113.36694 | 8121 ft | 265 kts | 57° |
| 2026-05-07 14:46 | 30.17560 | 113.38513 | 8129 ft | 266 kts | 57° |
| 2026-05-07 14:46 | 30.18526 | 113.40326 | 8127 ft | 265 kts | 57° |
| 2026-05-07 14:46 | 30.19490 | 113.42141 | 8129 ft | 265 kts | 57° |
| 2026-05-07 14:47 | 30.20454 | 113.43955 | 8105 ft | 265 kts | 57° |
| 2026-05-07 14:47 | 30.21417 | 113.45771 | 8125 ft | 265 kts | 57° |
| 2026-05-07 14:47 | 30.22379 | 113.47588 | 8134 ft | 265 kts | 57° |
| 2026-05-07 14:47 | 30.23331 | 113.49378 | 8113 ft | 264 kts | 57° |
| 2026-05-07 14:48 | 30.24291 | 113.51191 | 8109 ft | 264 kts | 57° |
| 2026-05-07 14:48 | 30.25253 | 113.53007 | 8122 ft | 266 kts | 57° |
| 2026-05-07 14:48 | 30.26218 | 113.54828 | 8124 ft | 265 kts | 57° |
| 2026-05-07 14:48 | 30.27182 | 113.56646 | 8118 ft | 264 kts | 57° |
| 2026-05-07 14:49 | 30.28142 | 113.58458 | 8123 ft | 264 kts | 57° |
| 2026-05-07 14:49 | 30.29100 | 113.60265 | 8091 ft | 264 kts | 57° |
| 2026-05-07 14:49 | 30.30061 | 113.62080 | 8120 ft | 265 kts | 57° |
| 2026-05-07 14:49 | 30.31027 | 113.63899 | 8094 ft | 265 kts | 57° |
| 2026-05-07 14:50 | 30.31973 | 113.65693 | 8099 ft | 265 kts | 57° |
| 2026-05-07 14:50 | 30.32933 | 113.67523 | 8099 ft | 266 kts | 57° |
| 2026-05-07 14:50 | 30.33892 | 113.69349 | 8092 ft | 265 kts | 57° |
| 2026-05-07 14:50 | 30.34853 | 113.71166 | 8091 ft | 265 kts | 57° |
| 2026-05-07 14:51 | 30.35821 | 113.72994 | 8113 ft | 267 kts | 57° |
| 2026-05-07 14:51 | 30.36790 | 113.74829 | 8117 ft | 267 kts | 57° |
| 2026-05-07 14:51 | 30.37753 | 113.76658 | 8093 ft | 265 kts | 57° |
| 2026-05-07 14:51 | 30.38712 | 113.78479 | 8085 ft | 265 kts | 57° |
| 2026-05-07 14:52 | 30.39677 | 113.80318 | 8016 ft | 269 kts | 58° |
| 2026-05-07 14:52 | 30.40555 | 113.82180 | 7937 ft | 265 kts | 60° |
| 2026-05-07 14:52 | 30.41459 | 113.84037 | 7697 ft | 264 kts | 57° |
| 2026-05-07 14:52 | 30.42470 | 113.85795 | 7373 ft | 261 kts | 53° |
| 2026-05-07 14:53 | 30.43576 | 113.87443 | 6984 ft | 257 kts | 50° |
| 2026-05-07 14:53 | 30.44748 | 113.88992 | 6578 ft | 254 kts | 47° |
| 2026-05-07 14:53 | 30.45965 | 113.90460 | 6129 ft | 251 kts | 45° |
| 2026-05-07 14:53 | 30.47210 | 113.91868 | 5683 ft | 248 kts | 43° |
| 2026-05-07 14:54 | 30.48466 | 113.93219 | 5292 ft | 245 kts | 43° |
| 2026-05-07 14:54 | 30.49721 | 113.94537 | 4820 ft | 243 kts | 42° |
| 2026-05-07 14:54 | 30.50963 | 113.95811 | 4364 ft | 241 kts | 41° |
| 2026-05-07 14:54 | 30.52236 | 113.97093 | 4096 ft | 241 kts | 41° |
| 2026-05-07 14:55 | 30.53485 | 113.98349 | 3976 ft | 235 kts | 41° |
| 2026-05-07 14:55 | 30.54718 | 113.99596 | 3939 ft | 235 kts | 41° |
| 2026-05-07 14:55 | 30.55957 | 114.00854 | 3923 ft | 238 kts | 41° |
| 2026-05-07 14:55 | 30.57204 | 114.02126 | 3911 ft | 239 kts | 41° |
| 2026-05-07 14:56 | 30.58460 | 114.03403 | 3906 ft | 240 kts | 41° |
| 2026-05-07 14:56 | 30.59717 | 114.04677 | 3899 ft | 240 kts | 41° |
| 2026-05-07 14:56 | 30.60951 | 114.05931 | 3889 ft | 238 kts | 41° |
| 2026-05-07 14:56 | 30.62196 | 114.07202 | 3887 ft | 239 kts | 41° |
| 2026-05-07 14:57 | 30.63428 | 114.08457 | 3861 ft | 228 kts | 41° |
| 2026-05-07 14:57 | 30.64628 | 114.09686 | 3200 ft | 234 kts | 41° |
| 2026-05-07 14:57 | 30.65852 | 114.10937 | 2730 ft | 234 kts | 41° |
| 2026-05-07 14:57 | 30.67045 | 114.12155 | 2335 ft | 222 kts | 43° |
| 2026-05-07 14:58 | 30.68151 | 114.13351 | 1890 ft | 213 kts | 43° |
| 2026-05-07 14:58 | 30.69211 | 114.14531 | 1519 ft | 207 kts | 44° |
| 2026-05-07 14:58 | 30.70199 | 114.15642 | 1409 ft | 186 kts | 44° |
| 2026-05-07 14:58 | 30.71066 | 114.16636 | 1206 ft | 172 kts | 46° |
| 2026-05-07 14:59 | 30.71873 | 114.17642 | 810 ft | 171 kts | 46° |
| 2026-05-07 14:59 | 30.72753 | 114.18556 | 600 ft | 163 kts | 37° |
| 2026-05-07 14:59 | 30.73653 | 114.19266 | 453 ft | 154 kts | 38° |
| 2026-05-07 14:59 | 30.74434 | 114.20096 | 229 ft | 150 kts | 47° |
| 2026-05-07 15:00 | 30.74880 | 114.20652 | 59 ft | 0 kts | 46° |